Time;durP1;ratioP1;P1;durP2;ratioP2;P2;SDS_P1;SDS_P2;PMS_P1;PMS_P2;Temp;Humidity;BMP_temperature;BMP_pressure;BME280_temperature;BME280_humidity;BME280_pressure;Samples;Min_cycle;Max_cycle;Signal;HPM_P1;HPM_P2
2024/03/18 00:00:50;;;;;;;1.73;1.17;;;23.20;61.60;;;;;;5095175;28;20454;-87
2024/03/18 00:03:20;;;;;;;1.60;1.20;;;23.20;61.60;;;;;;5095515;28;20439;-87
2024/03/18 00:05:46;;;;;;;2.30;1.40;;;23.20;61.60;;;;;;5094313;28;20446;-88
2024/03/18 00:08:14;;;;;;;2.23;1.37;;;23.20;61.60;;;;;;5095774;28;20475;-84
2024/03/18 00:10:41;;;;;;;1.87;1.57;;;23.20;61.60;;;;;;5095342;28;20444;-88
2024/03/18 00:13:08;;;;;;;2.57;1.57;;;23.20;61.60;;;;;;5095187;28;20479;-87
2024/03/18 00:15:34;;;;;;;1.73;1.20;;;23.20;61.60;;;;;;5095225;28;20435;-83
2024/03/18 00:18:01;;;;;;;2.20;1.40;;;23.20;61.60;;;;;;5095488;28;20447;-89
2024/03/18 00:20:29;;;;;;;2.93;1.60;;;23.20;61.60;;;;;;5095057;28;20431;-88
2024/03/18 00:22:56;;;;;;;1.70;1.30;;;23.20;61.60;;;;;;5095101;28;20458;-88
2024/03/18 00:25:23;;;;;;;1.83;1.43;;;23.20;61.60;;;;;;5095091;28;20455;-86
2024/03/18 00:27:49;;;;;;;1.60;1.17;;;23.20;61.60;;;;;;5094950;28;20431;-84
2024/03/18 00:30:16;;;;;;;1.70;1.20;;;23.20;61.60;;;;;;5094836;28;20483;-88
2024/03/18 00:32:43;;;;;;;2.27;1.40;;;23.20;61.60;;;;;;5095052;28;20918;-84
2024/03/18 00:35:10;;;;;;;1.80;1.40;;;23.10;61.50;;;;;;5094764;28;20439;-87
2024/03/18 00:37:39;;;;;;;2.00;1.43;;;23.20;61.60;;;;;;5094709;28;20443;-83
2024/03/18 00:40:08;;;;;;;2.10;1.60;;;23.10;61.50;;;;;;5094667;28;20931;-83
2024/03/18 00:42:34;;;;;;;1.60;1.07;;;23.10;61.50;;;;;;5093855;28;20967;-84
2024/03/18 00:45:01;;;;;;;1.60;1.20;;;23.20;61.60;;;;;;5094547;28;20439;-88
2024/03/18 00:47:28;;;;;;;2.47;1.20;;;23.20;61.60;;;;;;5094276;28;20487;-83
2024/03/18 00:49:55;;;;;;;2.00;1.67;;;23.10;61.50;;;;;;5094423;28;20482;-83
2024/03/18 00:52:23;;;;;;;1.70;1.27;;;23.20;61.60;;;;;;5094329;28;20445;-87
2024/03/18 00:54:51;;;;;;;2.07;1.20;;;23.20;61.60;;;;;;5094358;28;20459;-85
2024/03/18 00:57:18;;;;;;;1.90;1.20;;;23.20;61.70;;;;;;5094168;28;20436;-83
2024/03/18 00:59:45;;;;;;;1.70;1.10;;;23.20;61.70;;;;;;5094197;28;20432;-88
2024/03/18 01:02:12;;;;;;;2.00;1.60;;;23.10;61.50;;;;;;5094143;28;20484;-88
2024/03/18 01:04:39;;;;;;;2.10;1.30;;;23.20;61.60;;;;;;5094303;28;20432;-84
2024/03/18 01:07:06;;;;;;;1.57;1.13;;;23.10;61.50;;;;;;5094168;28;20436;-83
2024/03/18 01:09:33;;;;;;;1.70;1.20;;;23.10;61.60;;;;;;5094127;28;20573;-83
2024/03/18 01:12:01;;;;;;;1.80;1.30;;;23.10;61.50;;;;;;5094003;28;20475;-83
2024/03/18 01:14:28;;;;;;;1.60;1.03;;;23.10;61.50;;;;;;5094255;28;20442;-84
2024/03/18 01:16:54;;;;;;;2.00;1.50;;;23.10;61.60;;;;;;5094001;28;20436;-88
2024/03/18 01:19:21;;;;;;;2.50;1.20;;;23.10;61.60;;;;;;5098579;28;20424;-83
2024/03/18 01:21:48;;;;;;;2.10;1.30;;;23.10;61.50;;;;;;5098667;28;20444;-83
2024/03/18 01:24:15;;;;;;;1.60;1.13;;;23.10;61.60;;;;;;5101008;28;20483;-86
2024/03/18 01:26:41;;;;;;;1.70;1.27;;;23.10;61.50;;;;;;5098927;28;20447;-83
2024/03/18 01:29:09;;;;;;;1.70;1.20;;;23.10;61.60;;;;;;5093372;28;21036;-83
2024/03/18 01:31:36;;;;;;;1.60;1.10;;;23.10;61.60;;;;;;5093916;28;20206;-85
2024/03/18 01:34:04;;;;;;;1.53;1.07;;;23.10;61.60;;;;;;5093807;28;20447;-84
2024/03/18 01:36:32;;;;;;;1.70;1.30;;;23.10;61.60;;;;;;5093643;28;20470;-87
2024/03/18 01:38:58;;;;;;;1.90;1.40;;;23.10;61.60;;;;;;5093482;28;20455;-83
2024/03/18 01:41:25;;;;;;;1.70;1.17;;;23.20;61.70;;;;;;5094005;28;20439;-83
2024/03/18 01:43:52;;;;;;;1.80;1.27;;;23.10;61.60;;;;;;5093815;28;20922;-83
2024/03/18 01:46:20;;;;;;;1.60;1.10;;;23.10;61.60;;;;;;5107853;28;20439;-83
2024/03/18 01:48:49;;;;;;;1.97;1.40;;;23.10;61.60;;;;;;5113189;28;20459;-82
2024/03/18 01:51:16;;;;;;;2.20;1.20;;;23.10;61.60;;;;;;5103886;28;20447;-87
2024/03/18 01:53:43;;;;;;;1.50;1.03;;;23.10;61.60;;;;;;5093149;28;20460;-85
2024/03/18 01:56:10;;;;;;;1.57;0.97;;;23.10;61.60;;;;;;5093283;28;20443;-81
2024/03/18 01:58:38;;;;;;;2.13;1.40;;;23.10;61.60;;;;;;5093141;28;20432;-82
2024/03/18 02:01:07;;;;;;;1.93;1.20;;;23.10;61.60;;;;;;5093217;28;20847;-82
2024/03/18 02:03:35;;;;;;;1.77;1.20;;;23.10;61.60;;;;;;5093697;28;20436;-83
2024/03/18 02:06:02;;;;;;;1.60;1.20;;;23.10;61.60;;;;;;5093122;28;20474;-84
2024/03/18 02:08:29;;;;;;;1.50;1.00;;;23.10;61.60;;;;;;5092631;28;20457;-82
2024/03/18 02:10:55;;;;;;;1.50;1.10;;;23.10;61.60;;;;;;5093006;28;20774;-82
2024/03/18 02:13:22;;;;;;;1.60;1.10;;;23.10;61.60;;;;;;5093301;28;20786;-83
2024/03/18 02:15:49;;;;;;;1.70;1.20;;;23.10;61.70;;;;;;5093027;28;20435;-83
2024/03/18 02:18:16;;;;;;;1.60;1.20;;;23.10;61.70;;;;;;5093117;28;20442;-83
2024/03/18 02:20:44;;;;;;;1.70;1.20;;;23.00;61.50;;;;;;5093273;28;20793;-83
2024/03/18 02:23:13;;;;;;;1.50;1.10;;;23.00;61.60;;;;;;5093303;28;20444;-83
2024/03/18 02:25:42;;;;;;;1.60;1.20;;;23.00;61.60;;;;;;5093162;28;20467;-83
2024/03/18 02:28:09;;;;;;;1.87;1.20;;;23.00;61.60;;;;;;5093237;28;20431;-83
2024/03/18 02:30:36;;;;;;;1.87;1.30;;;23.10;61.70;;;;;;5093022;28;20512;-83
2024/03/18 02:33:03;;;;;;;1.50;1.10;;;23.00;61.60;;;;;;5093254;28;20432;-87
2024/03/18 02:35:29;;;;;;;2.00;1.10;;;23.00;61.60;;;;;;5093085;28;20431;-83
2024/03/18 02:37:56;;;;;;;1.60;1.10;;;23.00;61.60;;;;;;5093206;28;20439;-83
2024/03/18 02:40:24;;;;;;;1.73;1.23;;;23.00;61.60;;;;;;5093146;28;20435;-84
2024/03/18 02:42:51;;;;;;;1.70;1.20;;;23.00;61.60;;;;;;5092917;28;20432;-83
2024/03/18 02:45:18;;;;;;;1.60;1.20;;;23.00;61.60;;;;;;5092739;28;20439;-84
2024/03/18 02:47:45;;;;;;;1.80;1.30;;;23.00;61.70;;;;;;5092762;28;20435;-85
2024/03/18 02:50:17;;;;;;;1.70;1.17;;;23.00;61.70;;;;;;5092560;28;20491;-83
2024/03/18 02:52:45;;;;;;;1.50;0.90;;;23.00;61.60;;;;;;5091618;28;20931;-86
2024/03/18 02:55:12;;;;;;;1.60;1.00;;;23.00;61.60;;;;;;5091685;28;20468;-83
2024/03/18 02:57:40;;;;;;;1.50;1.07;;;23.00;61.60;;;;;;5092632;28;20435;-83
2024/03/18 03:00:10;;;;;;;1.60;1.10;;;23.00;61.70;;;;;;5092864;28;20434;-83
2024/03/18 03:02:37;;;;;;;2.30;1.20;;;23.00;61.70;;;;;;5093135;28;20843;-84
2024/03/18 03:05:04;;;;;;;1.80;1.10;;;23.00;61.70;;;;;;5093713;28;20456;-83
2024/03/18 03:07:31;;;;;;;1.50;1.13;;;23.00;61.70;;;;;;5096373;28;20438;-88
2024/03/18 03:09:58;;;;;;;1.60;1.10;;;23.00;61.70;;;;;;5096148;28;20482;-84
2024/03/18 03:12:26;;;;;;;1.60;1.10;;;23.00;61.70;;;;;;5096142;28;20502;-83
2024/03/18 03:14:54;;;;;;;1.70;1.10;;;23.00;61.70;;;;;;5096232;28;20489;-83
2024/03/18 03:17:23;;;;;;;1.60;1.10;;;23.00;61.70;;;;;;5095251;28;20442;-84
2024/03/18 03:19:50;;;;;;;1.60;1.00;;;23.00;61.70;;;;;;5096260;28;20435;-87
2024/03/18 03:22:17;;;;;;;1.67;1.10;;;23.00;61.70;;;;;;5096420;28;20496;-87
2024/03/18 03:24:44;;;;;;;1.60;1.00;;;23.00;61.70;;;;;;5095996;28;20459;-83
2024/03/18 03:27:10;;;;;;;1.63;1.20;;;23.00;61.70;;;;;;5095809;28;20440;-83
2024/03/18 03:29:37;;;;;;;1.70;1.03;;;23.00;61.80;;;;;;5096109;28;20879;-83
2024/03/18 03:32:06;;;;;;;1.90;1.07;;;23.00;61.80;;;;;;5096004;28;20431;-83
2024/03/18 03:34:33;;;;;;;2.10;1.13;;;23.00;61.70;;;;;;5095867;28;20439;-83
2024/03/18 03:37:00;;;;;;;1.80;1.00;;;23.00;61.80;;;;;;5095740;28;20439;-83
2024/03/18 03:39:27;;;;;;;1.70;1.03;;;23.00;61.80;;;;;;5077775;28;20922;-84
2024/03/18 03:41:54;;;;;;;1.50;0.97;;;23.00;61.80;;;;;;5095699;28;20447;-86
2024/03/18 03:44:21;;;;;;;1.50;1.00;;;22.90;61.60;;;;;;5095750;28;20798;-83
2024/03/18 03:46:49;;;;;;;1.63;1.00;;;23.10;61.90;;;;;;5095544;28;20447;-84
2024/03/18 03:49:17;;;;;;;1.60;1.07;;;23.00;61.80;;;;;;5095357;28;21059;-83
2024/03/18 03:51:44;;;;;;;1.60;1.10;;;22.90;61.70;;;;;;5095393;28;20446;-83
2024/03/18 03:54:10;;;;;;;1.47;0.90;;;22.90;61.70;;;;;;5095628;28;20787;-85
2024/03/18 03:56:37;;;;;;;1.90;1.03;;;22.90;61.70;;;;;;5095265;28;20432;-83
2024/03/18 03:59:04;;;;;;;1.50;1.00;;;22.90;61.70;;;;;;5095243;28;20446;-85
2024/03/18 04:01:31;;;;;;;1.80;1.00;;;22.90;61.70;;;;;;5095388;28;20461;-85
2024/03/18 04:03:58;;;;;;;1.83;1.03;;;22.90;61.70;;;;;;5095237;28;20431;-83
2024/03/18 04:06:26;;;;;;;1.63;0.97;;;22.90;61.70;;;;;;5095265;28;20475;-87
2024/03/18 04:08:52;;;;;;;1.60;0.90;;;22.90;61.70;;;;;;5095418;28;20438;-83
2024/03/18 04:11:19;;;;;;;2.27;1.37;;;22.90;61.70;;;;;;5094782;28;20495;-83
2024/03/18 04:13:46;;;;;;;1.53;1.07;;;23.00;61.90;;;;;;5086927;28;20936;-83
2024/03/18 04:16:14;;;;;;;1.60;1.10;;;22.90;61.70;;;;;;5095174;28;20919;-84
2024/03/18 04:18:42;;;;;;;1.50;0.90;;;22.90;61.70;;;;;;5095015;28;20440;-83
2024/03/18 04:21:11;;;;;;;1.60;1.03;;;22.90;61.80;;;;;;5095213;28;20444;-83
2024/03/18 04:23:40;;;;;;;1.60;0.90;;;22.90;61.70;;;;;;5094968;28;20558;-83
2024/03/18 04:26:08;;;;;;;1.70;1.00;;;22.90;61.70;;;;;;5095243;28;20597;-83
2024/03/18 04:28:35;;;;;;;1.57;1.03;;;22.90;61.80;;;;;;5094905;28;20515;-83
2024/03/18 04:31:05;;;;;;;1.50;1.00;;;22.90;61.80;;;;;;5094624;28;20493;-88
2024/03/18 04:33:32;;;;;;;1.60;1.00;;;22.90;61.70;;;;;;5094670;28;20444;-83
2024/03/18 04:35:59;;;;;;;1.60;0.97;;;22.90;61.70;;;;;;5094574;28;20443;-84
2024/03/18 04:38:26;;;;;;;1.50;1.10;;;22.90;61.80;;;;;;5094627;28;20515;-83
2024/03/18 04:40:54;;;;;;;1.60;1.00;;;22.90;61.80;;;;;;5094644;28;20831;-83
2024/03/18 04:43:21;;;;;;;1.57;1.00;;;22.90;61.80;;;;;;5095231;28;20427;-83
2024/03/18 04:45:48;;;;;;;1.60;0.90;;;22.90;61.80;;;;;;5094653;28;20431;-83
2024/03/18 04:48:15;;;;;;;1.73;1.03;;;22.90;61.80;;;;;;5094427;28;20942;-83
2024/03/18 04:50:41;;;;;;;1.50;1.00;;;22.90;61.80;;;;;;5094348;28;20910;-83
2024/03/18 04:53:08;;;;;;;1.50;0.90;;;22.90;61.80;;;;;;5094734;28;20450;-83
2024/03/18 04:55:35;;;;;;;1.40;0.80;;;22.90;61.80;;;;;;5094337;28;20539;-83
2024/03/18 04:58:03;;;;;;;1.57;0.90;;;22.90;61.80;;;;;;5103094;28;20438;-81
2024/03/18 05:00:31;;;;;;;1.73;1.00;;;22.90;61.80;;;;;;5108599;28;20524;-83
2024/03/18 05:02:58;;;;;;;1.90;1.13;;;22.90;62.70;;;;;;5109020;28;20428;-84
2024/03/18 05:05:24;;;;;;;1.50;1.00;;;22.90;61.80;;;;;;5094069;28;20427;-83
2024/03/18 05:07:52;;;;;;;1.70;0.93;;;22.90;61.80;;;;;;5094026;28;20442;-83
2024/03/18 05:10:21;;;;;;;1.80;0.93;;;22.90;61.80;;;;;;5093796;28;20859;-83
2024/03/18 05:12:48;;;;;;;1.50;0.90;;;22.90;61.80;;;;;;5093870;28;20467;-83
2024/03/18 05:15:16;;;;;;;1.67;0.97;;;22.90;61.80;;;;;;5094032;28;20446;-83
2024/03/18 05:17:44;;;;;;;1.70;1.10;;;22.90;61.90;;;;;;5094032;28;20438;-83
2024/03/18 05:20:12;;;;;;;1.87;1.00;;;22.90;61.80;;;;;;5093965;28;20432;-83
2024/03/18 05:22:39;;;;;;;1.60;0.90;;;22.90;61.80;;;;;;5093992;28;20440;-84
2024/03/18 05:25:09;;;;;;;1.97;1.33;;;22.90;61.90;;;;;;5093618;28;20456;-87
2024/03/18 05:27:36;;;;;;;1.60;1.23;;;22.90;62.70;;;;;;5093079;28;21143;-83
2024/03/18 05:30:04;;;;;;;2.07;1.10;;;23.00;62.00;;;;;;5093626;28;20474;-83
2024/03/18 05:32:32;;;;;;;1.50;0.90;;;22.90;61.90;;;;;;5093532;28;20447;-82
2024/03/18 05:34:59;;;;;;;1.50;1.00;;;22.90;61.90;;;;;;5103693;28;20431;-83
2024/03/18 05:37:26;;;;;;;1.50;1.00;;;22.90;61.90;;;;;;5096885;28;20431;-83
2024/03/18 05:39:53;;;;;;;1.50;0.90;;;22.90;61.90;;;;;;5114046;28;20464;-83
2024/03/18 05:42:19;;;;;;;1.50;0.90;;;22.90;61.90;;;;;;5113718;28;20439;-82
2024/03/18 05:44:46;;;;;;;1.60;0.93;;;22.90;61.90;;;;;;5093879;28;20968;-82
2024/03/18 05:47:13;;;;;;;1.60;0.90;;;22.90;61.90;;;;;;5102227;28;20432;-82
2024/03/18 05:49:41;;;;;;;1.73;0.93;;;22.90;61.90;;;;;;5102568;28;20921;-83
2024/03/18 05:52:08;;;;;;;1.80;1.17;;;22.90;61.90;;;;;;5102158;28;20427;-85
2024/03/18 05:54:35;;;;;;;1.50;0.90;;;22.90;62.00;;;;;;5097033;28;20451;-82
2024/03/18 05:57:02;;;;;;;1.50;0.90;;;22.80;61.80;;;;;;5094676;28;20805;-81
2024/03/18 05:59:29;;;;;;;1.50;0.90;;;22.90;61.90;;;;;;5096950;28;20488;-82
2024/03/18 06:01:55;;;;;;;2.83;1.13;;;22.90;62.00;;;;;;5096451;28;20431;-82
2024/03/18 06:04:22;;;;;;;1.90;1.00;;;22.90;62.00;;;;;;5109248;28;20450;-81
2024/03/18 06:06:51;;;;;;;1.90;1.03;;;22.90;61.90;;;;;;5118998;28;20457;-85
2024/03/18 06:09:18;;;;;;;2.03;1.63;;;22.90;62.10;;;;;;5098965;28;20435;-83
2024/03/18 06:11:45;;;;;;;1.90;1.20;;;22.90;62.20;;;;;;5116732;28;20496;-81
2024/03/18 06:14:12;;;;;;;2.20;1.20;;;22.90;62.20;;;;;;5121973;28;20439;-86
2024/03/18 06:16:39;;;;;;;2.00;1.00;;;22.90;62.20;;;;;;5113457;28;20804;-83
2024/03/18 06:19:06;;;;;;;2.27;1.10;;;22.90;62.30;;;;;;5113084;28;20450;-82
2024/03/18 06:21:39;;;;;;;2.00;1.20;;;22.90;62.30;;;;;;5125026;28;20446;-82
2024/03/18 06:24:19;;;;;;;1.83;1.10;;;22.90;62.30;;;;;;5108820;28;20457;-86
2024/03/18 06:26:45;;;;;;;1.70;0.97;;;22.90;62.30;;;;;;5093784;28;20991;-82
2024/03/18 06:29:12;;;;;;;2.33;1.57;;;22.80;62.30;;;;;;5112021;28;20441;-82
2024/03/18 06:31:39;;;;;;;1.73;1.20;;;22.90;62.40;;;;;;5134141;28;20484;-82
2024/03/18 06:34:07;;;;;;;2.33;1.20;;;22.90;62.90;;;;;;5134048;28;20532;-83
2024/03/18 06:36:34;;;;;;;2.43;1.23;;;22.90;62.40;;;;;;5134138;28;20442;-83
2024/03/18 06:39:01;;;;;;;2.33;1.00;;;22.90;62.50;;;;;;5134069;27;20539;-83
2024/03/18 06:41:30;;;;;;;1.80;1.30;;;22.90;62.50;;;;;;5137825;27;20437;-83
2024/03/18 06:44:00;;;;;;;1.60;1.10;;;22.90;62.60;;;;;;5138271;27;20433;-82
2024/03/18 06:46:29;;;;;;;3.43;1.30;;;22.90;62.60;;;;;;5138848;27;20440;-82
2024/03/18 06:48:56;;;;;;;1.83;1.13;;;23.00;62.70;;;;;;5137976;27;20425;-82
2024/03/18 06:51:23;;;;;;;1.60;1.00;;;22.90;62.60;;;;;;5137900;27;20485;-84
2024/03/18 06:53:49;;;;;;;1.60;1.00;;;22.90;62.60;;;;;;5137905;27;20819;-82
2024/03/18 06:56:17;;;;;;;2.70;1.23;;;22.90;62.60;;;;;;5137046;27;20442;-83
2024/03/18 06:58:45;;;;;;;1.70;1.00;;;22.90;62.70;;;;;;5139248;27;20441;-82
2024/03/18 07:01:12;;;;;;;1.60;1.10;;;22.90;62.70;;;;;;5138343;27;20490;-81
2024/03/18 07:03:40;;;;;;;1.53;0.97;;;22.90;62.70;;;;;;5136156;27;20441;-88
2024/03/18 07:06:07;;;;;;;2.00;1.10;;;22.90;62.60;;;;;;5125921;27;20457;-84
2024/03/18 07:08:34;;;;;;;2.47;1.40;;;22.90;63.00;;;;;;5125892;27;20446;-81
2024/03/18 07:11:00;;;;;;;2.07;1.10;;;22.90;62.90;;;;;;5132784;27;20473;-85
2024/03/18 07:13:32;;;;;;;2.30;1.00;;;22.90;63.00;;;;;;5118646;27;20439;-83
2024/03/18 07:16:00;;;;;;;2.30;1.20;;;22.90;63.00;;;;;;5117900;27;20508;-82
2024/03/18 07:18:27;;;;;;;2.00;1.07;;;22.90;63.00;;;;;;5126616;27;20446;-85
2024/03/18 07:20:55;;;;;;;1.83;1.10;;;22.90;63.10;;;;;;5137226;27;20426;-81
2024/03/18 07:23:22;;;;;;;1.60;1.03;;;22.90;63.10;;;;;;5137047;27;20968;-82
2024/03/18 07:25:50;;;;;;;1.57;0.90;;;22.90;63.10;;;;;;5137054;27;20503;-83
2024/03/18 07:28:16;;;;;;;1.73;1.17;;;22.90;63.30;;;;;;5137278;27;20433;-82
2024/03/18 07:30:46;;;;;;;2.10;1.20;;;22.90;63.10;;;;;;5136939;27;20465;-83
2024/03/18 07:33:14;;;;;;;1.80;1.00;;;23.00;63.40;;;;;;5136071;27;20437;-82
2024/03/18 07:35:41;;;;;;;1.60;1.03;;;22.90;63.30;;;;;;5136105;27;20444;-82
2024/03/18 07:38:08;;;;;;;1.70;1.00;;;22.90;63.30;;;;;;5135747;27;20441;-81
2024/03/18 07:40:35;;;;;;;1.97;1.07;;;22.90;63.30;;;;;;5135720;27;20932;-83
2024/03/18 07:43:02;;;;;;;2.40;1.10;;;22.90;63.30;;;;;;5136030;27;20954;-82
2024/03/18 07:45:29;;;;;;;3.10;0.93;;;22.90;63.30;;;;;;5136021;27;20437;-81
2024/03/18 07:48:02;;;;;;;2.00;1.37;;;22.90;63.50;;;;;;5136258;27;20438;-80
2024/03/18 07:50:30;;;;;;;2.93;1.07;;;22.90;63.50;;;;;;5136417;27;20850;-81
2024/03/18 07:52:57;;;;;;;1.53;1.00;;;22.90;63.50;;;;;;5136720;27;20433;-80
2024/03/18 07:55:24;;;;;;;1.63;1.10;;;22.90;63.60;;;;;;5137133;27;20440;-84
2024/03/18 07:57:51;;;;;;;3.30;1.37;;;22.90;63.50;;;;;;5136714;27;20438;-85
2024/03/18 08:00:18;;;;;;;2.87;0.97;;;22.90;63.50;;;;;;5136774;27;20430;-81
2024/03/18 08:02:45;;;;;;;3.33;1.67;;;22.90;63.60;;;;;;5136897;27;20430;-81
2024/03/18 08:05:12;;;;;;;1.70;1.10;;;22.90;63.60;;;;;;5136888;27;20839;-86
2024/03/18 08:07:40;;;;;;;2.13;1.20;;;22.90;63.70;;;;;;5136505;27;20502;-87
2024/03/18 08:10:09;;;;;;;1.40;0.90;;;22.90;63.70;;;;;;5136473;27;20437;-84
2024/03/18 08:12:36;;;;;;;1.77;0.90;;;22.90;63.70;;;;;;5140910;27;20493;-86
2024/03/18 08:15:03;;;;;;;1.50;0.83;;;22.90;63.80;;;;;;5153542;27;20451;-80
2024/03/18 08:17:29;;;;;;;2.20;1.27;;;22.90;63.90;;;;;;5152167;27;20442;-84
2024/03/18 08:19:56;;;;;;;3.43;1.30;;;22.90;63.90;;;;;;5136693;27;20514;-85
2024/03/18 08:22:23;;;;;;;2.10;1.40;;;22.90;63.90;;;;;;5136164;27;20433;-82
2024/03/18 08:24:51;;;;;;;2.03;1.37;;;22.90;63.90;;;;;;5135770;27;20450;-82
2024/03/18 08:27:18;;;;;;;1.70;1.03;;;23.00;64.00;;;;;;5135975;27;20434;-85
2024/03/18 08:29:44;;;;;;;1.50;0.93;;;23.00;64.10;;;;;;5135809;27;20441;-82
2024/03/18 08:32:11;;;;;;;1.60;1.03;;;22.90;64.00;;;;;;5136734;27;20483;-87
2024/03/18 08:34:39;;;;;;;3.70;1.10;;;23.00;64.10;;;;;;5135780;27;20958;-82
2024/03/18 08:37:05;;;;;;;2.33;1.20;;;23.00;64.20;;;;;;5135769;27;20438;-86
2024/03/18 08:39:32;;;;;;;2.27;1.30;;;22.90;64.20;;;;;;5135810;27;20434;-82
2024/03/18 08:42:00;;;;;;;3.67;1.43;;;23.00;64.20;;;;;;5135876;27;20430;-84
2024/03/18 08:44:27;;;;;;;5.73;1.63;;;22.90;64.20;;;;;;5135666;27;20942;-83
2024/03/18 08:46:54;;;;;;;2.27;1.40;;;23.00;64.70;;;;;;5132153;27;20442;-83
2024/03/18 08:49:22;;;;;;;1.83;1.20;;;23.00;64.50;;;;;;5131414;27;20448;-83
2024/03/18 08:51:49;;;;;;;4.17;1.10;;;23.00;64.10;;;;;;5135156;27;20880;-83
2024/03/18 08:54:18;;;;;;;5.83;1.93;;;23.00;63.60;;;;;;5135235;27;20473;-84
2024/03/18 08:56:45;;;;;;;3.30;1.67;;;23.00;64.30;;;;;;5135334;27;20851;-82
2024/03/18 08:59:13;;;;;;;13.20;2.43;;;23.00;64.90;;;;;;5117146;27;20433;-82
2024/03/18 09:01:39;;;;;;;5.77;1.73;;;23.00;65.20;;;;;;5135446;27;20437;-82
2024/03/18 09:04:06;;;;;;;5.33;1.70;;;23.00;65.60;;;;;;5134522;27;20468;-84
2024/03/18 09:06:33;;;;;;;5.83;1.80;;;23.00;65.90;;;;;;5135500;27;20495;-82
2024/03/18 09:09:00;;;;;;;8.47;1.97;;;23.00;65.90;;;;;;5134443;27;20465;-82
2024/03/18 09:11:27;;;;;;;7.17;2.20;;;23.00;66.00;;;;;;5134488;27;20541;-86
2024/03/18 09:13:54;;;;;;;4.70;1.67;;;23.00;66.20;;;;;;5134893;27;20434;-83
2024/03/18 09:16:22;;;;;;;6.60;2.23;;;23.00;66.30;;;;;;5134523;27;20528;-86
2024/03/18 09:18:49;;;;;;;5.63;1.80;;;23.00;66.30;;;;;;5134810;27;20426;-83
2024/03/18 09:21:17;;;;;;;12.73;2.17;;;23.00;66.30;;;;;;5135659;27;20442;-87
2024/03/18 09:23:44;;;;;;;7.70;1.60;;;23.10;66.40;;;;;;5135104;27;20462;-83
2024/03/18 09:26:11;;;;;;;7.07;2.00;;;23.00;66.20;;;;;;5135387;27;20845;-87
2024/03/18 09:28:39;;;;;;;4.87;2.03;;;23.10;66.30;;;;;;5135079;27;20437;-84
2024/03/18 09:31:07;;;;;;;4.60;1.70;;;23.00;66.20;;;;;;5134991;27;20505;-83
2024/03/18 09:33:35;;;;;;;8.23;1.90;;;23.00;66.20;;;;;;5135234;27;20445;-84
2024/03/18 09:36:01;;;;;;;6.03;1.80;;;23.00;66.30;;;;;;5134941;27;20441;-87
2024/03/18 09:38:29;;;;;;;9.67;2.23;;;23.10;67.40;;;;;;5135070;27;20434;-88
2024/03/18 09:41:03;;;;;;;7.77;1.87;;;23.00;66.20;;;;;;5135435;27;20533;-84
2024/03/18 09:43:32;;;;;;;5.60;1.97;;;23.00;66.30;;;;;;5135428;27;20509;-88
2024/03/18 09:45:59;;;;;;;5.90;2.00;;;23.00;66.20;;;;;;5135764;27;20457;-87
2024/03/18 09:48:27;;;;;;;2.20;1.30;;;23.10;66.20;;;;;;5135749;27;20429;-85
2024/03/18 09:50:57;;;;;;;4.37;1.97;;;23.00;66.20;;;;;;5135260;27;20430;-85
2024/03/18 09:53:24;;;;;;;3.53;2.00;;;23.00;66.10;;;;;;5135667;28;20461;-88
2024/03/18 09:55:51;;;;;;;7.87;1.73;;;23.00;66.20;;;;;;5135490;28;20803;-87
2024/03/18 09:58:18;;;;;;;3.07;1.90;;;23.00;66.30;;;;;;5135175;28;20989;-84
2024/03/18 10:00:45;;;;;;;5.30;1.60;;;23.00;66.70;;;;;;5135185;28;20442;-88
2024/03/18 10:03:19;;;;;;;6.57;2.10;;;23.00;66.30;;;;;;5136007;28;20453;-84
2024/03/18 10:05:48;;;;;;;4.30;1.90;;;23.00;66.30;;;;;;5135594;28;20444;-88
2024/03/18 10:08:16;;;;;;;6.50;1.60;;;23.10;66.30;;;;;;5135727;28;20480;-88
2024/03/18 10:10:45;;;;;;;7.87;1.50;;;23.00;66.10;;;;;;5134969;28;20433;-84
2024/03/18 10:13:12;;;;;;;4.00;1.50;;;23.10;66.10;;;;;;5134776;27;20488;-83
2024/03/18 10:15:39;;;;;;;3.07;1.50;;;23.10;66.10;;;;;;5138854;27;20440;-87
2024/03/18 10:18:10;;;;;;;5.50;1.97;;;23.10;66.10;;;;;;5139007;27;20514;-88
2024/03/18 10:20:37;;;;;;;2.10;1.30;;;23.10;65.90;;;;;;5139324;27;20479;-84
2024/03/18 10:23:06;;;;;;;2.57;1.77;;;23.10;66.00;;;;;;5139231;27;20459;-88
2024/03/18 10:25:34;;;;;;;4.10;1.97;;;23.10;66.00;;;;;;5138965;27;20433;-85
2024/03/18 10:28:04;;;;;;;3.20;1.80;;;23.10;65.90;;;;;;5116548;27;20430;-89
2024/03/18 10:30:31;;;;;;;2.73;1.70;;;23.10;65.70;;;;;;5113718;27;20444;-87
2024/03/18 10:32:59;;;;;;;3.40;1.70;;;23.10;65.80;;;;;;5139756;27;20481;-83
2024/03/18 10:35:27;;;;;;;5.00;1.93;;;23.10;65.80;;;;;;5151418;27;20459;-84
2024/03/18 10:37:56;;;;;;;7.83;2.30;;;23.10;65.80;;;;;;5142745;27;20433;-86
2024/03/18 10:40:34;;;;;;;3.53;1.60;;;23.10;65.80;;;;;;5150627;27;20441;-86
2024/03/18 10:43:03;;;;;;;3.47;1.77;;;23.10;65.90;;;;;;5138871;27;20437;-85
2024/03/18 10:45:31;;;;;;;4.93;2.10;;;23.10;65.80;;;;;;5139089;27;20437;-84
2024/03/18 10:48:01;;;;;;;3.33;1.43;;;23.10;65.90;;;;;;5137973;27;20442;-84
2024/03/18 10:50:29;;;;;;;3.47;2.00;;;23.20;66.10;;;;;;5138025;27;20444;-87
2024/03/18 10:52:56;;;;;;;3.97;1.67;;;23.10;66.20;;;;;;5137770;27;20579;-84
2024/03/18 10:55:24;;;;;;;5.23;1.80;;;23.10;66.00;;;;;;5137577;27;20433;-86
2024/03/18 10:57:53;;;;;;;7.90;2.00;;;23.20;66.10;;;;;;5136976;27;20433;-86
2024/03/18 11:00:22;;;;;;;7.90;2.37;;;23.20;66.00;;;;;;5137748;27;20944;-84
2024/03/18 11:02:55;;;;;;;7.30;2.00;;;23.20;65.80;;;;;;5137833;27;20483;-84
2024/03/18 11:05:22;;;;;;;5.40;1.60;;;23.20;65.90;;;;;;5138111;27;20478;-87
2024/03/18 11:07:49;;;;;;;3.00;1.73;;;23.20;65.80;;;;;;5138002;27;20837;-84
2024/03/18 11:10:16;;;;;;;4.47;1.83;;;23.20;65.80;;;;;;5137787;27;20438;-84
2024/03/18 11:12:43;;;;;;;6.57;1.70;;;23.20;65.80;;;;;;5138511;27;20492;-84
2024/03/18 11:15:10;;;;;;;2.70;1.70;;;23.20;65.80;;;;;;5138200;27;20438;-87
2024/03/18 11:17:43;;;;;;;3.70;2.13;;;23.20;65.70;;;;;;5137321;27;20434;-84
2024/03/18 11:20:15;;;;;;;9.43;2.30;;;23.20;65.60;;;;;;5138002;27;20429;-87
2024/03/18 11:22:50;;;;;;;4.07;1.60;;;23.20;65.60;;;;;;5138532;27;20524;-84
2024/03/18 11:25:18;;;;;;;2.33;1.30;;;23.20;65.50;;;;;;5136513;27;20433;-87
2024/03/18 11:27:49;;;;;;;5.97;2.00;;;23.20;65.60;;;;;;5138090;27;20430;-86
2024/03/18 11:30:27;;;;;;;2.43;1.97;;;23.20;65.70;;;;;;5138201;27;20434;-87
2024/03/18 11:32:56;;;;;;;3.50;1.70;;;23.20;65.70;;;;;;5149515;27;20488;-84
2024/03/18 11:35:23;;;;;;;3.77;1.70;;;23.20;65.70;;;;;;5150660;27;20410;-84
2024/03/18 11:37:50;;;;;;;4.13;1.67;;;23.20;65.80;;;;;;5142078;27;20438;-84
2024/03/18 11:40:20;;;;;;;5.50;2.27;;;23.20;65.90;;;;;;5136122;27;20438;-82
2024/03/18 11:42:48;;;;;;;5.30;1.63;;;23.20;65.90;;;;;;5096411;28;20514;-88
2024/03/18 11:45:19;;;;;;;2.10;1.30;;;23.20;65.90;;;;;;5096032;28;20436;-87
2024/03/18 11:47:46;;;;;;;2.70;1.60;;;23.20;65.80;;;;;;5096139;28;20431;-85
2024/03/18 11:50:15;;;;;;;3.70;2.17;;;23.20;65.90;;;;;;5106978;27;20443;-85
2024/03/18 11:52:42;;;;;;;2.67;1.80;;;23.20;65.80;;;;;;5126036;27;20836;-87
2024/03/18 11:55:14;;;;;;;2.60;1.53;;;23.20;65.90;;;;;;5116517;28;20445;-87
2024/03/18 11:57:40;;;;;;;5.00;1.80;;;23.30;66.00;;;;;;5116474;28;20438;-87
2024/03/18 12:00:12;;;;;;;6.17;2.10;;;23.30;65.60;;;;;;5116217;28;20783;-84
2024/03/18 12:02:40;;;;;;;4.67;2.50;;;23.30;65.50;;;;;;5116492;28;20435;-85
2024/03/18 12:05:07;;;;;;;4.23;2.17;;;23.30;65.50;;;;;;5116398;28;20442;-85
2024/03/18 12:07:35;;;;;;;3.37;2.60;;;23.30;65.30;;;;;;5115836;28;20933;-87
2024/03/18 12:10:04;;;;;;;7.17;3.00;;;23.30;65.00;;;;;;5115506;28;20955;-83
2024/03/18 12:12:31;;;;;;;6.93;2.77;;;23.30;64.50;;;;;;5114877;28;20507;-85
2024/03/18 12:14:58;;;;;;;8.13;5.10;;;23.30;64.40;;;;;;5115511;28;20446;-85
2024/03/18 12:17:27;;;;;;;10.70;6.33;;;23.30;65.90;;;;;;5115393;28;20442;-85
2024/03/18 12:19:54;;;;;;;8.30;5.63;;;23.40;67.00;;;;;;5115308;28;20435;-86
2024/03/18 12:22:23;;;;;;;8.97;5.20;;;23.30;67.30;;;;;;5108516;27;20551;-88
2024/03/18 12:30:21;;;;;;;11.93;4.83;;;23.30;67.80;;;;;;5124099;27;20433;-84
2024/03/18 12:32:49;;;;;;;7.03;4.17;;;23.30;67.90;;;;;;5111497;27;20496;-87
2024/03/18 12:35:17;;;;;;;7.23;4.57;;;23.40;68.10;;;;;;5135308;27;20936;-85
2024/03/18 12:37:47;;;;;;;6.87;4.43;;;23.40;68.00;;;;;;5134923;27;20924;-81
2024/03/18 12:40:16;;;;;;;12.40;4.83;;;23.40;67.70;;;;;;5135678;27;20799;-84
2024/03/18 12:42:43;;;;;;;9.23;3.87;;;23.40;67.80;;;;;;5135093;27;20461;-82
2024/03/18 12:45:12;;;;;;;7.83;3.90;;;23.40;67.70;;;;;;5134843;27;20438;-85
2024/03/18 12:47:39;;;;;;;9.30;3.50;;;23.40;67.90;;;;;;5134228;27;20438;-82
2024/03/18 12:50:06;;;;;;;7.40;4.20;;;23.40;68.00;;;;;;5135222;27;20460;-86
2024/03/18 12:52:35;;;;;;;10.60;5.43;;;23.40;68.40;;;;;;5134575;27;20493;-81